createdAt,value
2018-07-06T00:00:27.143Z,1.90
2018-07-06T00:03:06.881Z,1.20
2018-07-06T00:05:46.548Z,1.53
2018-07-06T00:08:26.326Z,1.40
2018-07-06T00:11:06.130Z,2.63
2018-07-06T00:13:45.885Z,1.83
2018-07-06T00:16:25.628Z,1.33
2018-07-06T00:19:05.297Z,2.10
2018-07-06T00:21:45.026Z,5.03
2018-07-06T00:24:24.766Z,2.27
2018-07-06T00:27:04.506Z,2.03
2018-07-06T00:29:44.150Z,1.77
2018-07-06T00:32:23.908Z,2.53
2018-07-06T00:35:03.659Z,2.20
2018-07-06T00:37:43.385Z,1.50
2018-07-06T00:40:23.039Z,1.50
2018-07-06T00:43:02.717Z,2.30
2018-07-06T00:45:42.405Z,3.00
2018-07-06T00:48:22.031Z,2.30
2018-07-06T00:51:03.070Z,3.40
2018-07-06T00:53:43.061Z,2.93
2018-07-06T00:56:23.060Z,2.03
2018-07-06T00:59:02.753Z,1.40
2018-07-06T01:01:42.465Z,1.57
2018-07-06T01:04:21.928Z,2.87
2018-07-06T01:07:01.665Z,2.33
2018-07-06T01:09:41.538Z,3.83
2018-07-06T01:12:26.454Z,3.10
2018-07-06T01:15:11.507Z,2.47
2018-07-06T01:17:51.089Z,2.30
2018-07-06T01:20:30.718Z,3.67
2018-07-06T01:23:10.448Z,2.40
2018-07-06T01:25:50.184Z,4.00
2018-07-06T01:28:29.980Z,4.13
2018-07-06T01:31:09.696Z,3.10
2018-07-06T01:33:49.780Z,3.17
2018-07-06T01:36:29.539Z,1.97
2018-07-06T01:39:09.182Z,2.30
2018-07-06T01:41:48.924Z,4.17
2018-07-06T01:44:28.548Z,2.20
2018-07-06T01:47:08.317Z,3.83
2018-07-06T01:49:48.013Z,2.67
2018-07-06T01:52:27.653Z,2.30
2018-07-06T01:55:07.474Z,2.53
2018-07-06T01:57:47.182Z,1.73
2018-07-06T02:00:26.996Z,2.70
2018-07-06T02:03:06.762Z,2.00
2018-07-06T02:05:46.845Z,3.17
2018-07-06T02:08:27.045Z,1.60
2018-07-06T02:11:06.802Z,2.47
2018-07-06T02:13:46.596Z,3.07
2018-07-06T02:16:26.327Z,1.93
2018-07-06T02:19:05.942Z,2.40
2018-07-06T02:21:45.803Z,2.83
2018-07-06T02:24:25.474Z,2.13
2018-07-06T02:27:05.114Z,2.40
2018-07-06T02:29:44.856Z,1.77
2018-07-06T02:32:24.530Z,2.90
2018-07-06T02:35:04.355Z,2.63
2018-07-06T02:37:44.136Z,2.67
2018-07-06T02:40:24.823Z,3.73
2018-07-06T02:43:04.591Z,3.07
2018-07-06T02:45:44.364Z,2.73
2018-07-06T02:48:24.015Z,2.83
2018-07-06T02:51:03.628Z,3.33
2018-07-06T02:53:43.421Z,3.00
2018-07-06T02:56:23.017Z,4.53
2018-07-06T02:59:02.676Z,3.43
2018-07-06T03:01:42.465Z,3.30
2018-07-06T03:04:22.194Z,3.10
2018-07-06T03:07:01.836Z,2.90
2018-07-06T03:09:41.476Z,2.60
2018-07-06T03:12:21.181Z,2.33
2018-07-06T03:15:00.968Z,2.33
2018-07-06T03:17:40.605Z,3.10
2018-07-06T03:20:20.349Z,3.07
2018-07-06T03:22:59.956Z,3.93
2018-07-06T03:25:39.648Z,4.07
2018-07-06T03:28:19.473Z,3.30
2018-07-06T03:30:59.115Z,2.87
2018-07-06T03:33:38.737Z,11.43
2018-07-06T03:36:18.509Z,4.83
2018-07-06T03:38:58.022Z,3.67
2018-07-06T03:41:37.631Z,5.20
2018-07-06T03:44:17.211Z,5.03
2018-07-06T03:46:57.036Z,6.00
2018-07-06T03:49:36.865Z,4.27
2018-07-06T03:52:16.678Z,4.17
2018-07-06T03:54:56.866Z,5.23
2018-07-06T03:57:37.210Z,5.03
2018-07-06T04:00:16.907Z,5.70
2018-07-06T04:02:56.545Z,4.73
2018-07-06T04:05:36.268Z,6.97
2018-07-06T04:08:15.979Z,5.10
2018-07-06T04:10:55.641Z,6.37
2018-07-06T04:13:35.284Z,9.40
2018-07-06T04:16:14.935Z,6.70
2018-07-06T04:19:01.717Z,9.70
2018-07-06T04:21:41.510Z,7.73
2018-07-06T04:24:21.129Z,7.73
2018-07-06T04:27:00.902Z,8.53
2018-07-06T04:29:40.471Z,8.03
2018-07-06T04:32:20.256Z,8.80
2018-07-06T04:34:59.990Z,10.10
2018-07-06T04:37:40.125Z,10.40
2018-07-06T04:40:19.896Z,11.13
2018-07-06T04:42:59.728Z,9.83
2018-07-06T04:45:39.249Z,11.10
2018-07-06T04:48:18.878Z,10.30
2018-07-06T04:50:58.704Z,14.90
2018-07-06T04:53:38.488Z,11.67
2018-07-06T04:56:18.134Z,10.07
2018-07-06T04:58:57.903Z,8.40
2018-07-06T05:01:37.723Z,15.00
2018-07-06T05:04:17.348Z,14.00
2018-07-06T05:06:57.041Z,13.50
2018-07-06T05:09:36.557Z,15.47
2018-07-06T05:12:16.507Z,19.17
2018-07-06T05:14:56.199Z,14.40
2018-07-06T05:17:35.973Z,12.83
2018-07-06T05:20:15.618Z,12.17
2018-07-06T05:22:55.377Z,12.10
2018-07-06T05:25:35.030Z,12.90
2018-07-06T05:28:14.713Z,16.37
2018-07-06T05:30:54.452Z,16.37
2018-07-06T05:33:34.144Z,15.97
2018-07-06T05:36:13.809Z,16.93
2018-07-06T05:38:53.524Z,17.43
2018-07-06T05:41:33.171Z,17.20
2018-07-06T05:44:12.808Z,16.43
2018-07-06T05:46:52.591Z,14.97
2018-07-06T05:49:32.219Z,12.93
2018-07-06T05:52:11.874Z,12.87
2018-07-06T05:54:51.573Z,12.73
2018-07-06T05:57:31.342Z,12.87
2018-07-06T06:00:11.011Z,17.80
2018-07-06T06:02:50.575Z,14.90
2018-07-06T06:05:30.226Z,15.10
2018-07-06T06:07:57.629Z,17.00
2018-07-06T06:10:26.269Z,19.70
2018-07-06T06:12:54.876Z,21.47
2018-07-06T06:15:23.771Z,16.57
2018-07-06T06:17:52.402Z,15.80
2018-07-06T06:20:21.040Z,21.87
2018-07-06T06:22:49.657Z,15.80
2018-07-06T06:25:18.300Z,22.60
2018-07-06T06:27:46.954Z,16.40
2018-07-06T06:30:15.561Z,15.23
2018-07-06T06:32:44.749Z,17.00
2018-07-06T06:35:13.331Z,20.40
2018-07-06T06:37:42.374Z,15.73
2018-07-06T06:40:11.057Z,13.10
2018-07-06T06:42:39.679Z,16.43
2018-07-06T06:45:08.311Z,13.47
2018-07-06T06:47:36.962Z,17.83
2018-07-06T06:50:05.628Z,14.23
2018-07-06T06:52:34.298Z,16.17
2018-07-06T06:55:03.003Z,15.00
2018-07-06T06:57:31.684Z,21.00
2018-07-06T07:00:00.361Z,15.30
2018-07-06T07:02:29.149Z,19.13
2018-07-06T07:04:57.850Z,13.27
2018-07-06T07:07:26.843Z,18.37
2018-07-06T07:09:55.522Z,16.73
2018-07-06T07:12:24.228Z,15.97
2018-07-06T07:14:52.894Z,18.83
2018-07-06T07:17:21.532Z,16.57
2018-07-06T07:19:50.269Z,15.63
2018-07-06T07:22:18.980Z,13.67
2018-07-06T07:24:47.697Z,16.20
2018-07-06T07:27:16.435Z,14.17
2018-07-06T07:29:45.127Z,11.90
2018-07-06T07:32:13.840Z,13.60
2018-07-06T07:34:42.579Z,19.03
2018-07-06T07:37:11.238Z,16.43
2018-07-06T07:39:39.967Z,17.97
2018-07-06T07:42:08.656Z,15.60
2018-07-06T07:44:37.264Z,14.60
2018-07-06T07:47:05.989Z,15.10
2018-07-06T07:49:34.663Z,19.60
2018-07-06T07:52:14.284Z,16.70
2018-07-06T07:54:46.056Z,15.97
2018-07-06T07:57:14.999Z,15.33
2018-07-06T07:59:44.086Z,17.43
2018-07-06T08:02:12.802Z,13.20
2018-07-06T08:04:41.840Z,14.10
2018-07-06T08:07:10.468Z,14.80
2018-07-06T08:09:39.188Z,15.87
2018-07-06T08:12:07.905Z,16.67
2018-07-06T08:14:36.975Z,16.53
2018-07-06T08:17:05.873Z,13.23
2018-07-06T08:19:34.527Z,14.27
2018-07-06T08:22:03.154Z,20.90
2018-07-06T08:24:32.753Z,14.23
2018-07-06T08:27:01.366Z,17.17
2018-07-06T08:29:29.971Z,13.50
2018-07-06T08:31:58.601Z,16.00
2018-07-06T08:34:38.391Z,15.43
2018-07-06T08:37:29.328Z,13.40
2018-07-06T08:39:58.533Z,14.70
2018-07-06T08:42:28.334Z,15.47
2018-07-06T08:44:57.702Z,16.23
2018-07-06T08:47:26.429Z,13.67
2018-07-06T08:49:55.948Z,11.90
2018-07-06T08:52:24.580Z,13.67
2018-07-06T08:54:53.510Z,11.93
2018-07-06T08:57:22.982Z,12.10
2018-07-06T08:59:52.292Z,15.53
2018-07-06T09:02:21.277Z,14.10
2018-07-06T09:04:50.567Z,13.83
2018-07-06T09:07:19.213Z,15.03
2018-07-06T09:09:47.948Z,16.67
2018-07-06T09:12:16.576Z,16.83
2018-07-06T09:14:45.163Z,14.97
2018-07-06T09:17:15.786Z,12.37
2018-07-06T09:19:45.028Z,12.73
2018-07-06T09:22:14.251Z,13.97
2018-07-06T09:24:43.645Z,14.60
2018-07-06T09:27:12.298Z,14.13
2018-07-06T09:29:41.104Z,11.50
2018-07-06T09:32:10.037Z,11.57
2018-07-06T09:34:38.855Z,12.23
2018-07-06T09:37:08.226Z,12.57
2018-07-06T09:39:37.297Z,12.13
2018-07-06T09:42:05.925Z,10.67
2018-07-06T09:44:34.566Z,12.20
2018-07-06T09:47:03.499Z,10.73
2018-07-06T09:49:32.001Z,10.10
2018-07-06T09:52:00.721Z,10.50
2018-07-06T09:54:29.408Z,10.00
2018-07-06T09:56:58.085Z,12.40
2018-07-06T09:59:26.748Z,9.83
2018-07-06T10:01:55.406Z,9.47
2018-07-06T10:04:24.138Z,10.77
2018-07-06T10:06:52.734Z,8.87
2018-07-06T10:09:21.333Z,8.53
2018-07-06T10:11:49.977Z,10.60
2018-07-06T10:14:18.617Z,12.63
2018-07-06T10:16:47.288Z,8.97
2018-07-06T10:19:15.945Z,12.03
2018-07-06T10:21:44.594Z,10.70
2018-07-06T10:24:13.202Z,6.93
2018-07-06T10:26:41.869Z,9.10
2018-07-06T10:29:35.658Z,6.40
2018-07-06T10:32:18.296Z,10.53
2018-07-06T10:34:47.077Z,8.50
2018-07-06T10:37:16.650Z,8.27
2018-07-06T10:39:45.421Z,10.47
2018-07-06T10:42:14.036Z,7.27
2018-07-06T10:44:42.703Z,9.83
2018-07-06T10:47:11.722Z,10.77
2018-07-06T10:49:40.353Z,6.50
2018-07-06T10:52:09.666Z,8.00
2018-07-06T10:54:39.070Z,5.70
2018-07-06T10:57:08.094Z,7.63
2018-07-06T10:59:36.788Z,7.00
2018-07-06T11:02:05.580Z,7.17
2018-07-06T11:04:35.090Z,6.60
2018-07-06T11:07:03.728Z,6.43
2018-07-06T11:09:32.403Z,6.73
2018-07-06T11:12:01.194Z,5.70
2018-07-06T11:14:29.825Z,4.47
2018-07-06T11:16:58.443Z,9.13
2018-07-06T11:19:27.170Z,6.43
2018-07-06T11:21:55.892Z,5.17
2018-07-06T11:24:24.619Z,5.33
2018-07-06T11:26:53.261Z,5.10
2018-07-06T11:29:21.894Z,5.20
2018-07-06T11:31:50.523Z,7.03
2018-07-06T11:34:19.193Z,5.23
2018-07-06T11:36:47.813Z,9.23
2018-07-06T11:39:16.516Z,4.77
2018-07-06T11:41:46.140Z,5.27
2018-07-06T11:44:14.815Z,5.37
2018-07-06T11:46:43.521Z,4.83
2018-07-06T11:49:12.142Z,4.97
2018-07-06T11:51:40.786Z,4.73
2018-07-06T11:54:09.396Z,5.33
2018-07-06T11:56:38.035Z,7.77
2018-07-06T11:59:06.693Z,5.03
2018-07-06T12:01:35.312Z,6.53
2018-07-06T12:04:04.138Z,5.30
2018-07-06T12:06:32.631Z,4.43
2018-07-06T12:09:01.307Z,4.70
2018-07-06T12:11:30.224Z,5.13
2018-07-06T12:13:59.702Z,5.30
2018-07-06T12:16:28.352Z,6.83
2018-07-06T12:18:56.993Z,3.93
2018-07-06T12:21:25.722Z,6.17
2018-07-06T12:23:54.435Z,4.20
2018-07-06T12:26:23.033Z,3.77
2018-07-06T12:28:51.724Z,4.87
2018-07-06T12:31:20.339Z,8.03
2018-07-06T12:33:48.981Z,6.90
2018-07-06T12:36:17.659Z,5.80
2018-07-06T12:38:46.945Z,3.33
2018-07-06T12:41:15.575Z,7.00
2018-07-06T12:43:44.200Z,4.40
2018-07-06T12:46:12.850Z,5.83
2018-07-06T12:48:41.549Z,7.70
2018-07-06T12:51:10.228Z,3.30
2018-07-06T12:53:38.849Z,4.07
2018-07-06T12:56:07.468Z,5.17
2018-07-06T12:58:36.218Z,2.63
2018-07-06T13:01:04.812Z,4.80
2018-07-06T13:03:33.508Z,4.13
2018-07-06T13:06:02.159Z,4.23
2018-07-06T13:08:30.792Z,3.57
2018-07-06T13:10:59.421Z,6.33
2018-07-06T13:13:28.058Z,3.87
2018-07-06T13:15:56.700Z,6.10
2018-07-06T13:18:25.430Z,5.43
2018-07-06T13:20:54.167Z,4.63
2018-07-06T13:23:22.862Z,2.80
2018-07-06T13:25:51.675Z,6.60
2018-07-06T13:28:20.286Z,2.57
2018-07-06T13:30:48.925Z,3.27
2018-07-06T13:33:17.517Z,6.13
2018-07-06T13:35:46.132Z,5.37
2018-07-06T13:38:14.770Z,2.93
2018-07-06T13:40:43.664Z,5.17
2018-07-06T13:43:12.286Z,4.00
2018-07-06T13:45:40.940Z,3.80
2018-07-06T13:48:09.598Z,5.13
2018-07-06T13:50:38.298Z,2.87
2018-07-06T13:53:07.122Z,4.87
2018-07-06T13:55:35.688Z,4.03
2018-07-06T13:58:04.375Z,3.30
2018-07-06T14:00:33.011Z,3.93
2018-07-06T14:03:01.685Z,7.53
2018-07-06T14:05:30.294Z,4.40
2018-07-06T14:07:58.964Z,4.90
2018-07-06T14:10:29.784Z,4.47
2018-07-06T14:12:58.584Z,5.80
2018-07-06T14:15:27.214Z,6.50
2018-07-06T14:17:55.848Z,2.83
2018-07-06T14:20:24.464Z,4.27
2018-07-06T14:22:53.069Z,4.43
2018-07-06T14:25:21.695Z,6.63
2018-07-06T14:27:52.346Z,3.90
2018-07-06T14:30:21.018Z,4.67
2018-07-06T14:32:49.651Z,3.40
2018-07-06T14:35:18.262Z,4.07
2018-07-06T14:37:46.868Z,4.77
2018-07-06T14:40:15.540Z,5.03
2018-07-06T14:42:44.151Z,4.57
2018-07-06T14:45:12.769Z,4.00
2018-07-06T14:47:41.356Z,4.17
2018-07-06T14:50:10.038Z,5.50
2018-07-06T14:52:38.694Z,5.73
2018-07-06T14:55:07.337Z,6.57
2018-07-06T14:57:35.999Z,6.07
2018-07-06T15:00:05.294Z,3.83
2018-07-06T15:02:34.262Z,6.07
2018-07-06T15:05:02.929Z,5.90
2018-07-06T15:07:31.628Z,6.37
2018-07-06T15:10:00.243Z,3.53
2018-07-06T15:12:28.942Z,6.73
2018-07-06T15:14:57.529Z,9.27
2018-07-06T15:17:26.170Z,3.97
2018-07-06T15:19:54.820Z,4.83
2018-07-06T15:22:24.373Z,3.17
2018-07-06T15:24:53.070Z,6.33
2018-07-06T15:27:21.664Z,6.23
2018-07-06T15:29:50.261Z,7.00
2018-07-06T15:32:18.916Z,7.83
2018-07-06T15:34:47.533Z,5.23
2018-07-06T15:37:16.251Z,5.23
2018-07-06T15:39:44.897Z,5.87
2018-07-06T15:42:13.545Z,9.20
2018-07-06T15:44:44.392Z,3.67
2018-07-06T15:47:13.010Z,6.53
2018-07-06T15:49:41.826Z,6.23
2018-07-06T15:52:11.757Z,9.33
2018-07-06T15:54:40.428Z,3.73
2018-07-06T15:57:09.098Z,4.57
2018-07-06T15:59:37.701Z,6.93
2018-07-06T16:02:06.353Z,7.10
2018-07-06T16:04:34.974Z,5.03
2018-07-06T16:07:04.870Z,5.13
2018-07-06T16:09:33.479Z,4.23
2018-07-06T16:12:02.147Z,5.43
2018-07-06T16:14:30.768Z,5.30
2018-07-06T16:16:59.398Z,6.37
2018-07-06T16:19:28.103Z,5.93
2018-07-06T16:21:56.698Z,7.67
2018-07-06T16:24:25.399Z,7.10
2018-07-06T16:26:54.043Z,10.70
2018-07-06T16:29:22.661Z,6.17
2018-07-06T16:31:51.354Z,7.37
2018-07-06T16:34:22.109Z,5.90
2018-07-06T16:36:50.734Z,5.97
2018-07-06T16:39:19.414Z,4.37
2018-07-06T16:41:48.092Z,32.07
2018-07-06T16:44:16.918Z,7.20
2018-07-06T16:46:45.892Z,8.83
2018-07-06T16:49:14.550Z,4.60
2018-07-06T16:51:43.203Z,4.13
2018-07-06T16:54:11.837Z,3.30
2018-07-06T16:56:40.536Z,5.90
2018-07-06T16:59:09.176Z,11.10
2018-07-06T17:01:37.815Z,3.60
2018-07-06T17:04:06.430Z,5.87
2018-07-06T17:06:35.751Z,8.27
2018-07-06T17:09:05.177Z,8.30
2018-07-06T17:11:33.908Z,5.90
2018-07-06T17:14:02.547Z,8.70
2018-07-06T17:16:31.191Z,5.17
2018-07-06T17:18:59.814Z,5.63
2018-07-06T17:21:28.460Z,6.97
2018-07-06T17:23:57.140Z,7.83
2018-07-06T17:26:25.805Z,9.27
2018-07-06T17:28:54.546Z,4.20
2018-07-06T17:31:23.257Z,3.43
2018-07-06T17:33:51.928Z,5.53
2018-07-06T17:36:20.562Z,3.80
2018-07-06T17:38:49.190Z,10.00
2018-07-06T17:41:17.929Z,2.60
2018-07-06T17:43:46.627Z,6.43
2018-07-06T17:46:15.782Z,5.63
2018-07-06T17:48:45.428Z,6.13
2018-07-06T17:51:14.375Z,6.10
2018-07-06T17:53:43.333Z,3.40
2018-07-06T17:56:14.342Z,6.93
2018-07-06T17:58:44.287Z,4.93
2018-07-06T18:06:56.817Z,2.97
2018-07-06T18:09:25.676Z,4.70
2018-07-06T18:11:54.707Z,5.13
2018-07-06T18:14:23.790Z,5.03
2018-07-06T18:16:52.799Z,4.67
2018-07-06T18:19:21.451Z,8.27
2018-07-06T18:21:50.407Z,7.33
2018-07-06T18:24:22.795Z,5.20
2018-07-06T18:26:51.441Z,8.17
2018-07-06T18:29:20.039Z,3.33
2018-07-06T18:31:48.729Z,5.93
2018-07-06T18:34:17.657Z,3.20
2018-07-06T18:36:46.930Z,4.43
2018-07-06T18:39:15.645Z,4.50
2018-07-06T18:41:44.258Z,7.50
2018-07-06T18:44:12.912Z,8.00
2018-07-06T18:46:41.566Z,7.80
2018-07-06T18:49:10.183Z,6.00
2018-07-06T18:51:38.915Z,5.17
2018-07-06T18:54:07.569Z,6.27
2018-07-06T18:56:36.434Z,8.33
2018-07-06T18:59:05.233Z,6.03
2018-07-06T19:01:33.922Z,5.70
2018-07-06T19:04:04.031Z,4.60
2018-07-06T19:06:32.750Z,3.97
2018-07-06T19:09:01.560Z,3.33
2018-07-06T19:11:30.175Z,5.33
2018-07-06T19:13:58.784Z,4.03
2018-07-06T19:16:27.436Z,3.87
2018-07-06T19:18:57.127Z,6.77
2018-07-06T19:21:26.661Z,7.17
2018-07-06T19:23:56.733Z,5.20
2018-07-06T19:26:25.568Z,5.13
2018-07-06T19:28:54.235Z,8.23
2018-07-06T19:31:23.037Z,5.37
2018-07-06T19:33:51.902Z,6.93
2018-07-06T19:36:20.726Z,4.23
2018-07-06T19:38:49.987Z,6.20
2018-07-06T19:41:18.584Z,4.97
2018-07-06T19:43:47.227Z,7.83
2018-07-06T19:46:15.914Z,13.03
2018-07-06T19:48:45.340Z,6.37
2018-07-06T19:51:14.044Z,6.10
2018-07-06T19:53:42.753Z,5.47
2018-07-06T19:56:11.446Z,3.93
2018-07-06T19:58:40.113Z,7.70
2018-07-06T20:01:08.778Z,4.40
2018-07-06T20:03:38.351Z,4.97
2018-07-06T20:06:07.773Z,4.73
2018-07-06T20:08:36.692Z,5.33
2018-07-06T20:11:05.433Z,6.60
2018-07-06T20:13:34.057Z,3.80
2018-07-06T20:16:02.651Z,4.60
2018-07-06T20:18:31.379Z,4.37
2018-07-06T20:21:00.200Z,4.33
2018-07-06T20:23:29.005Z,4.47
2018-07-06T20:25:57.625Z,3.23
2018-07-06T20:28:26.816Z,3.27
2018-07-06T20:30:55.462Z,3.37
2018-07-06T20:33:24.073Z,3.07
2018-07-06T20:35:53.634Z,4.80
2018-07-06T20:38:22.349Z,4.77
2018-07-06T20:40:50.945Z,4.40
2018-07-06T20:43:19.590Z,4.17
2018-07-06T20:45:48.271Z,3.13
2018-07-06T20:48:16.961Z,4.27
2018-07-06T20:50:45.642Z,4.97
2018-07-06T20:53:14.268Z,4.47
2018-07-06T20:55:42.907Z,3.30
2018-07-06T20:58:11.634Z,3.00
2018-07-06T21:00:40.753Z,3.03
2018-07-06T21:03:09.781Z,4.20
2018-07-06T21:05:38.516Z,2.70
2018-07-06T21:08:07.231Z,4.93
2018-07-06T21:10:35.985Z,4.63
2018-07-06T21:13:07.115Z,2.97
2018-07-06T21:15:35.828Z,6.37
2018-07-06T21:18:04.600Z,3.23
2018-07-06T21:20:33.287Z,11.93
2018-07-06T21:23:01.975Z,2.50
2018-07-06T21:25:30.608Z,3.20
2018-07-06T21:27:59.368Z,5.70
2018-07-06T21:30:28.264Z,5.80
2018-07-06T21:32:56.992Z,4.40
2018-07-06T21:35:25.625Z,4.50
2018-07-06T21:37:54.318Z,2.73
2018-07-06T21:40:22.942Z,5.47
2018-07-06T21:42:51.605Z,5.67
2018-07-06T21:45:20.352Z,5.20
2018-07-06T21:47:49.699Z,9.50
2018-07-06T21:50:18.429Z,3.27
2018-07-06T21:52:47.204Z,2.67
2018-07-06T21:55:16.776Z,3.00
2018-07-06T21:57:45.477Z,4.87
2018-07-06T22:00:14.288Z,3.23
2018-07-06T22:02:43.159Z,6.50
2018-07-06T22:05:11.877Z,4.00
2018-07-06T22:07:40.606Z,7.70
2018-07-06T22:10:09.424Z,4.37
2018-07-06T22:12:38.201Z,4.33
2018-07-06T22:15:07.078Z,5.03
2018-07-06T22:17:36.345Z,5.43
2018-07-06T22:20:05.128Z,3.37
2018-07-06T22:22:34.355Z,3.43
2018-07-06T22:25:07.082Z,2.97
2018-07-06T22:27:36.638Z,1.67
2018-07-06T22:30:05.353Z,3.40
2018-07-06T22:32:36.489Z,4.17
2018-07-06T22:35:05.254Z,3.37
2018-07-06T22:37:34.178Z,3.17
2018-07-06T22:40:02.912Z,2.63
2018-07-06T22:42:31.647Z,3.93
2018-07-06T22:45:00.392Z,3.10
2018-07-06T22:47:28.997Z,2.93
2018-07-06T22:49:57.669Z,5.53
2018-07-06T22:52:26.411Z,4.33
2018-07-06T22:54:55.041Z,3.30
2018-07-06T22:57:23.677Z,1.20
2018-07-06T22:59:52.296Z,3.53
2018-07-06T23:02:20.918Z,4.40
2018-07-06T23:04:49.505Z,3.70
2018-07-06T23:07:18.334Z,2.23
2018-07-06T23:09:47.000Z,1.40
2018-07-06T23:12:15.597Z,5.13
2018-07-06T23:14:44.239Z,2.00
2018-07-06T23:17:13.321Z,2.30
2018-07-06T23:19:42.012Z,2.83
2018-07-06T23:22:10.668Z,5.37
2018-07-06T23:24:39.317Z,1.73
2018-07-06T23:27:08.023Z,2.20
2018-07-06T23:29:36.601Z,6.33
2018-07-06T23:32:05.268Z,4.97
2018-07-06T23:34:35.368Z,4.63
2018-07-06T23:37:04.109Z,2.77
2018-07-06T23:39:32.734Z,3.33
2018-07-06T23:42:01.528Z,3.47
2018-07-06T23:44:30.097Z,2.10
2018-07-06T23:46:58.832Z,1.97
2018-07-06T23:49:27.493Z,5.53
2018-07-06T23:51:56.182Z,3.03
2018-07-06T23:54:24.881Z,4.30
2018-07-06T23:56:53.854Z,2.73
2018-07-06T23:59:22.466Z,2.30
